createdAt,value
2018-10-20T00:01:51.870Z,6.20
2018-10-20T00:04:20.578Z,6.20
2018-10-20T00:06:50.106Z,6.20
2018-10-20T00:09:18.944Z,6.30
2018-10-20T00:11:47.600Z,6.30
2018-10-20T00:14:16.252Z,6.30
2018-10-20T00:16:44.910Z,6.30
2018-10-20T00:19:13.615Z,6.30
2018-10-20T00:21:42.267Z,6.20
2018-10-20T00:24:11.149Z,6.20
2018-10-20T00:26:39.845Z,6.10
2018-10-20T00:29:08.494Z,6.00
2018-10-20T00:31:37.355Z,6.00
2018-10-20T00:34:06.009Z,5.90
2018-10-20T00:36:34.701Z,5.90
2018-10-20T00:39:03.878Z,5.90
2018-10-20T00:41:32.558Z,6.00
2018-10-20T00:44:01.462Z,6.00
2018-10-20T00:46:30.377Z,6.00
2018-10-20T00:48:59.099Z,6.00
2018-10-20T00:51:27.762Z,6.00
2018-10-20T00:53:56.418Z,5.90
2018-10-20T00:56:25.146Z,5.80
2018-10-20T00:58:53.820Z,5.80
2018-10-20T01:01:22.697Z,5.80
2018-10-20T01:03:51.398Z,5.70
2018-10-20T01:06:20.107Z,5.70
2018-10-20T01:08:48.780Z,5.60
2018-10-20T01:11:17.631Z,5.70
2018-10-20T01:13:46.287Z,5.70
2018-10-20T01:16:14.963Z,5.60
2018-10-20T01:18:43.752Z,5.60
2018-10-20T01:21:12.407Z,5.60
2018-10-20T01:23:41.045Z,5.50
2018-10-20T01:26:09.726Z,5.50
2018-10-20T01:28:38.416Z,5.40
2018-10-20T01:31:07.186Z,5.50
2018-10-20T01:33:35.939Z,5.50
2018-10-20T01:36:04.595Z,5.40
2018-10-20T01:38:33.316Z,5.40
2018-10-20T01:41:02.007Z,5.50
2018-10-20T01:43:30.698Z,5.50
2018-10-20T01:45:59.397Z,5.50
2018-10-20T01:48:28.828Z,5.50
2018-10-20T01:50:57.502Z,5.40
2018-10-20T01:53:26.255Z,5.40
2018-10-20T01:55:55.217Z,5.40
2018-10-20T01:58:23.870Z,5.40
2018-10-20T02:00:52.606Z,5.40
2018-10-20T02:03:21.296Z,5.40
2018-10-20T02:05:49.970Z,5.40
2018-10-20T02:08:18.903Z,5.40
2018-10-20T02:10:47.718Z,5.30
2018-10-20T02:13:16.452Z,5.30
2018-10-20T02:15:45.255Z,5.20
2018-10-20T02:18:14.122Z,5.20
2018-10-20T02:20:42.795Z,5.20
2018-10-20T02:23:11.965Z,5.20
2018-10-20T02:25:40.641Z,5.10
2018-10-20T02:28:09.464Z,5.10
2018-10-20T02:30:38.355Z,5.10
2018-10-20T02:33:07.013Z,5.20
2018-10-20T02:35:35.681Z,5.10
2018-10-20T02:38:04.334Z,5.00
2018-10-20T02:40:33.178Z,5.00
2018-10-20T02:43:01.891Z,5.00
2018-10-20T02:45:30.774Z,5.00
2018-10-20T02:47:59.469Z,4.90
2018-10-20T02:50:28.329Z,4.90
2018-10-20T02:52:56.997Z,4.80
2018-10-20T02:55:25.695Z,4.80
2018-10-20T02:57:54.428Z,4.90
2018-10-20T03:00:23.091Z,4.90
2018-10-20T03:02:51.935Z,5.00
2018-10-20T03:05:20.608Z,5.00
2018-10-20T03:07:49.325Z,4.90
2018-10-20T03:10:18.090Z,4.90
2018-10-20T03:12:46.665Z,4.80
2018-10-20T03:15:15.315Z,4.80
2018-10-20T03:17:43.991Z,4.90
2018-10-20T03:20:12.782Z,4.80
2018-10-20T03:22:41.640Z,4.90
2018-10-20T03:25:10.378Z,4.90
2018-10-20T03:27:39.044Z,4.90
2018-10-20T03:30:07.701Z,4.90
2018-10-20T03:32:36.554Z,4.90
2018-10-20T03:35:05.478Z,4.90
2018-10-20T03:37:34.219Z,4.80
2018-10-20T03:40:03.127Z,4.80
2018-10-20T03:42:32.015Z,4.70
2018-10-20T03:45:00.713Z,4.70
2018-10-20T03:47:29.485Z,4.70
2018-10-20T03:49:58.162Z,4.80
2018-10-20T03:52:26.915Z,4.80
2018-10-20T03:54:55.586Z,4.80
2018-10-20T03:57:24.265Z,4.90
2018-10-20T04:01:03.562Z,4.90
2018-10-20T04:03:32.585Z,5.00
2018-10-20T04:06:01.472Z,5.00
2018-10-20T04:08:30.175Z,5.00
2018-10-20T04:10:58.910Z,5.10
2018-10-20T04:13:27.691Z,5.10
2018-10-20T04:15:56.523Z,5.10
2018-10-20T04:18:26.023Z,5.20
2018-10-20T04:20:54.734Z,5.20
2018-10-20T04:23:28.877Z,5.20
2018-10-20T04:25:58.776Z,5.20
2018-10-20T04:28:28.095Z,5.20
2018-10-20T04:30:56.856Z,5.30
2018-10-20T04:33:25.766Z,5.30
2018-10-20T04:35:54.472Z,5.30
2018-10-20T04:38:23.844Z,5.30
2018-10-20T04:40:53.561Z,5.30
2018-10-20T04:43:22.230Z,5.30
2018-10-20T04:45:50.916Z,5.40
2018-10-20T04:48:19.593Z,5.30
2018-10-20T04:50:49.483Z,5.40
2018-10-20T04:53:18.130Z,5.30
2018-10-20T04:55:47.130Z,5.30
2018-10-20T04:58:16.535Z,5.40
2018-10-20T05:00:45.165Z,5.40
2018-10-20T05:03:13.823Z,5.40
2018-10-20T05:05:42.657Z,5.50
2018-10-20T05:08:11.299Z,5.40
2018-10-20T05:10:40.010Z,5.50
2018-10-20T05:13:19.908Z,5.60
2018-10-20T05:15:48.616Z,5.60
2018-10-20T05:18:17.306Z,5.60
2018-10-20T05:20:45.996Z,5.60
2018-10-20T05:23:14.696Z,5.60
2018-10-20T05:25:43.604Z,5.60
2018-10-20T05:28:13.458Z,5.60
2018-10-20T05:30:42.056Z,5.70
2018-10-20T05:33:10.740Z,5.70
2018-10-20T05:35:39.420Z,5.70
2018-10-20T05:38:08.109Z,5.70
2018-10-20T05:40:36.815Z,5.60
2018-10-20T05:43:05.837Z,5.70
2018-10-20T05:45:34.671Z,5.60
2018-10-20T05:48:03.343Z,5.60
2018-10-20T05:50:32.200Z,5.60
2018-10-20T05:53:00.895Z,5.70
2018-10-20T05:55:29.782Z,5.70
2018-10-20T05:57:58.890Z,5.80
2018-10-20T06:00:27.806Z,5.80
2018-10-20T06:02:56.442Z,5.80
2018-10-20T06:05:25.172Z,5.80
2018-10-20T06:07:53.840Z,5.90
2018-10-20T06:10:22.780Z,5.90
2018-10-20T06:12:51.377Z,6.00
2018-10-20T06:15:20.095Z,6.00
2018-10-20T06:17:48.766Z,6.00
2018-10-20T06:20:28.521Z,6.00
2018-10-20T06:22:57.401Z,6.10
2018-10-20T06:25:26.170Z,6.10
2018-10-20T06:27:54.914Z,6.20
2018-10-20T06:30:23.855Z,6.20
2018-10-20T06:32:52.556Z,6.20
2018-10-20T06:35:21.278Z,6.30
2018-10-20T06:37:50.080Z,6.30
2018-10-20T06:40:18.770Z,6.30
2018-10-20T06:42:47.484Z,6.30
2018-10-20T06:45:16.190Z,6.40
2018-10-20T06:47:45.178Z,6.40
2018-10-20T06:50:13.774Z,6.30
2018-10-20T06:52:42.443Z,6.40
2018-10-20T06:55:11.199Z,6.40
2018-10-20T06:57:39.817Z,6.40
2018-10-20T07:00:08.870Z,6.40
2018-10-20T07:02:37.732Z,6.40
2018-10-20T07:05:07.714Z,6.50
2018-10-20T07:07:36.379Z,6.50
2018-10-20T07:10:05.849Z,6.60
2018-10-20T07:12:34.509Z,6.60
2018-10-20T07:15:03.275Z,6.70
2018-10-20T07:17:31.951Z,6.70
2018-10-20T07:20:00.846Z,6.70
2018-10-20T07:22:29.757Z,6.80
2018-10-20T07:24:58.454Z,6.80
2018-10-20T07:27:27.181Z,6.90
2018-10-20T07:30:07.314Z,7.00
2018-10-20T07:32:36.290Z,7.10
2018-10-20T07:35:05.520Z,7.20
2018-10-20T07:37:34.184Z,7.10
2018-10-20T07:40:02.914Z,7.20
2018-10-20T07:42:31.863Z,7.20
2018-10-20T07:45:00.548Z,7.20
2018-10-20T07:47:29.232Z,7.20
2018-10-20T07:49:57.927Z,7.30
2018-10-20T07:52:26.642Z,7.30
2018-10-20T07:54:55.592Z,7.40
2018-10-20T07:57:24.543Z,7.50
2018-10-20T07:59:53.600Z,7.60
2018-10-20T08:02:22.425Z,7.70
2018-10-20T08:04:51.195Z,7.80
2018-10-20T08:07:19.951Z,7.80
2018-10-20T08:09:48.898Z,7.90
2018-10-20T08:12:17.781Z,8.00
2018-10-20T08:14:46.737Z,8.00
2018-10-20T08:17:15.910Z,8.00
2018-10-20T08:19:44.805Z,8.10
2018-10-20T08:22:13.550Z,8.10
2018-10-20T08:24:42.320Z,8.20
2018-10-20T08:27:11.078Z,8.30
2018-10-20T08:29:39.736Z,8.30
2018-10-20T08:32:08.832Z,8.40
2018-10-20T08:34:37.500Z,8.50
2018-10-20T08:37:06.334Z,8.60
2018-10-20T08:39:34.998Z,8.60
2018-10-20T08:42:03.704Z,8.70
2018-10-20T08:44:32.395Z,8.80
2018-10-20T08:47:01.036Z,8.80
2018-10-20T08:49:29.814Z,8.80
2018-10-20T08:51:58.547Z,8.90
2018-10-20T08:54:27.290Z,9.00
2018-10-20T08:56:56.015Z,9.10
2018-10-20T08:59:24.687Z,9.20
2018-10-20T09:01:53.541Z,9.20
2018-10-20T09:04:22.252Z,9.30
2018-10-20T09:06:51.109Z,9.40
2018-10-20T09:09:20.075Z,9.50
2018-10-20T09:11:48.740Z,9.50
2018-10-20T09:14:17.443Z,9.60
2018-10-20T09:16:46.210Z,9.70
2018-10-20T09:19:14.948Z,9.80
2018-10-20T09:21:43.721Z,9.90
2018-10-20T09:24:12.438Z,10.00
2018-10-20T09:26:41.316Z,10.00
2018-10-20T09:29:10.070Z,10.10
2018-10-20T09:31:39.138Z,10.20
2018-10-20T09:34:08.134Z,10.30
2018-10-20T09:36:36.901Z,10.30
2018-10-20T09:39:09.363Z,10.40
2018-10-20T09:41:38.059Z,10.50
2018-10-20T09:44:07.015Z,10.60
2018-10-20T09:46:35.966Z,10.70
2018-10-20T09:49:04.821Z,10.80
2018-10-20T09:51:33.628Z,10.90
2018-10-20T09:54:02.354Z,11.00
2018-10-20T09:56:31.085Z,11.10
2018-10-20T09:59:00.081Z,11.20
2018-10-20T10:01:46.102Z,11.20
2018-10-20T10:04:17.483Z,11.30
2018-10-20T10:06:46.170Z,11.30
2018-10-20T10:09:17.172Z,11.50
2018-10-20T10:11:46.567Z,11.50
2018-10-20T10:14:15.400Z,11.60
2018-10-20T10:16:44.196Z,11.70
2018-10-20T10:19:12.861Z,11.80
2018-10-20T10:21:41.564Z,11.90
2018-10-20T10:24:11.336Z,12.00
2018-10-20T10:26:40.028Z,12.00
2018-10-20T10:29:08.950Z,12.10
2018-10-20T10:31:37.673Z,12.20
2018-10-20T10:34:06.367Z,12.20
2018-10-20T10:36:41.676Z,12.30
2018-10-20T10:39:14.755Z,12.40
2018-10-20T10:41:59.117Z,12.50
2018-10-20T10:44:34.157Z,12.60
2018-10-20T10:47:08.097Z,12.70
2018-10-20T10:49:55.394Z,12.70
2018-10-20T10:52:26.533Z,12.80
2018-10-20T10:55:01.181Z,12.90
2018-10-20T10:58:09.951Z,12.90
2018-10-20T11:00:43.142Z,13.20
2018-10-20T11:03:18.920Z,13.30
2018-10-20T11:05:51.356Z,13.40
2018-10-20T11:08:28.507Z,13.40
2018-10-20T11:11:02.569Z,13.50
2018-10-20T11:13:36.504Z,13.70
2018-10-20T11:16:10.432Z,13.90
2018-10-20T11:19:14.414Z,14.00
2018-10-20T11:21:51.770Z,13.90
2018-10-20T11:24:27.583Z,14.20
2018-10-20T11:27:07.574Z,14.30
2018-10-20T11:31:46.509Z,14.40
2018-10-20T11:34:25.631Z,14.50
2018-10-20T11:36:58.567Z,14.60
2018-10-20T11:39:35.699Z,14.60
2018-10-20T11:42:08.965Z,14.80
2018-10-20T11:44:45.198Z,14.80
2018-10-20T11:47:24.093Z,14.90
2018-10-20T11:49:58.619Z,15.00
2018-10-20T11:52:27.475Z,15.00
2018-10-20T11:54:56.177Z,15.00
2018-10-20T11:57:24.857Z,15.10
2018-10-20T11:59:53.575Z,15.10
2018-10-20T12:02:22.287Z,15.30
2018-10-20T12:04:51.207Z,15.40
2018-10-20T12:07:19.915Z,15.40
2018-10-20T12:09:48.742Z,15.50
2018-10-20T12:12:17.720Z,15.30
2018-10-20T12:14:46.476Z,15.40
2018-10-20T12:17:15.245Z,15.70
2018-10-20T12:19:43.950Z,15.90
2018-10-20T12:22:12.698Z,15.90
2018-10-20T12:24:41.421Z,15.80
2018-10-20T12:27:10.264Z,16.00
2018-10-20T12:29:45.360Z,16.00
2018-10-20T12:32:14.195Z,16.20
2018-10-20T12:34:42.855Z,16.20
2018-10-20T12:37:11.538Z,16.50
2018-10-20T12:39:40.209Z,16.90
2018-10-20T12:42:09.041Z,16.70
2018-10-20T12:44:37.763Z,16.80
2018-10-20T12:47:06.423Z,16.80
2018-10-20T12:49:35.294Z,17.10
2018-10-20T12:52:04.039Z,17.50
2018-10-20T12:54:32.969Z,17.80
2018-10-20T12:57:01.701Z,18.20
2018-10-20T12:59:30.385Z,18.30
2018-10-20T13:01:59.310Z,18.60
2018-10-20T13:04:28.090Z,18.70
2018-10-20T13:06:57.014Z,18.50
2018-10-20T13:09:25.725Z,18.10
2018-10-20T13:11:54.426Z,17.60
2018-10-20T13:14:23.354Z,17.40
2018-10-20T13:16:52.239Z,17.10
2018-10-20T13:19:21.120Z,16.80
2018-10-20T13:21:49.974Z,16.80
2018-10-20T13:24:18.840Z,16.50
2018-10-20T13:26:47.600Z,16.60
2018-10-20T13:29:16.414Z,16.40
2018-10-20T13:31:45.055Z,16.30
2018-10-20T13:34:13.807Z,16.50
2018-10-20T13:36:42.723Z,16.30
2018-10-20T13:39:12.711Z,16.20
2018-10-20T13:41:41.952Z,16.40
2018-10-20T13:44:10.923Z,16.30
2018-10-20T13:46:39.577Z,16.20
2018-10-20T13:49:08.416Z,16.10
2018-10-20T13:51:37.089Z,15.90
2018-10-20T13:54:05.953Z,15.80
2018-10-20T13:56:34.846Z,15.70
2018-10-20T13:59:03.546Z,15.70
2018-10-20T14:01:32.260Z,15.50
2018-10-20T14:04:00.958Z,15.50
2018-10-20T14:06:29.858Z,15.50
2018-10-20T14:08:58.590Z,15.40
2018-10-20T14:11:27.388Z,15.40
2018-10-20T14:13:56.050Z,15.40
2018-10-20T14:16:24.730Z,15.40
2018-10-20T14:18:53.578Z,15.40
2018-10-20T14:21:22.250Z,15.40
2018-10-20T14:23:51.036Z,15.30
2018-10-20T14:26:19.958Z,15.40
2018-10-20T14:28:48.904Z,15.40
2018-10-20T14:31:17.830Z,15.40
2018-10-20T14:33:46.479Z,15.30
2018-10-20T14:36:15.232Z,15.20
2018-10-20T14:38:43.878Z,15.20
2018-10-20T14:41:12.595Z,15.20
2018-10-20T14:43:41.986Z,15.20
2018-10-20T14:46:11.216Z,15.10
2018-10-20T14:48:40.495Z,15.10
2018-10-20T14:51:09.912Z,15.00
2018-10-20T14:53:39.168Z,15.00
2018-10-20T14:56:08.203Z,15.00
2018-10-20T14:58:37.406Z,15.00
2018-10-20T15:01:06.295Z,15.00
2018-10-20T15:03:34.986Z,15.00
2018-10-20T15:06:03.777Z,15.00
2018-10-20T15:08:32.547Z,15.00
2018-10-20T15:11:01.307Z,15.00
2018-10-20T15:13:30.079Z,15.00
2018-10-20T15:15:58.718Z,15.00
2018-10-20T15:18:27.555Z,14.90
2018-10-20T15:20:56.271Z,14.90
2018-10-20T15:23:25.032Z,14.90
2018-10-20T15:25:53.793Z,15.00
2018-10-20T15:28:22.492Z,15.00
2018-10-20T15:30:51.457Z,15.00
2018-10-20T15:33:20.183Z,14.90
2018-10-20T15:35:48.920Z,14.90
2018-10-20T15:38:17.654Z,14.80
2018-10-20T15:40:46.516Z,14.80
2018-10-20T15:43:15.250Z,14.80
2018-10-20T15:45:45.944Z,14.80
2018-10-20T15:48:15.117Z,14.80
2018-10-20T15:50:45.831Z,14.80
2018-10-20T15:53:14.865Z,14.80
2018-10-20T15:55:44.268Z,14.80
2018-10-20T15:58:13.263Z,14.70
2018-10-20T16:00:42.401Z,14.70
2018-10-20T16:03:14.750Z,14.60
2018-10-20T16:05:43.920Z,14.60
2018-10-20T16:08:13.076Z,14.60
2018-10-20T16:10:42.929Z,14.60
2018-10-20T16:13:12.359Z,14.60
2018-10-20T16:15:41.182Z,14.60
2018-10-20T16:18:10.342Z,14.60
2018-10-20T16:20:39.023Z,14.50
2018-10-20T16:23:07.700Z,14.50
2018-10-20T16:25:36.416Z,14.50
2018-10-20T16:28:05.235Z,14.50
2018-10-20T16:30:33.928Z,14.50
2018-10-20T16:33:02.642Z,14.50
2018-10-20T16:35:31.365Z,14.50
2018-10-20T16:38:00.068Z,14.50
2018-10-20T16:40:28.774Z,14.40
2018-10-20T16:42:57.530Z,14.40
2018-10-20T16:45:26.258Z,14.40
2018-10-20T16:47:55.168Z,14.40
2018-10-20T16:50:23.995Z,14.40
2018-10-20T16:52:52.764Z,14.30
2018-10-20T16:55:21.570Z,14.30
2018-10-20T16:57:50.240Z,14.30
2018-10-20T17:00:19.136Z,14.30
2018-10-20T17:02:47.829Z,14.20
2018-10-20T17:05:16.739Z,14.20
2018-10-20T17:07:45.483Z,14.10
2018-10-20T17:10:14.200Z,14.10
2018-10-20T17:12:42.899Z,14.10
2018-10-20T17:15:11.665Z,14.00
2018-10-20T17:17:40.438Z,14.00
2018-10-20T17:20:09.272Z,13.90
2018-10-20T17:22:37.971Z,13.90
2018-10-20T17:25:06.717Z,13.80
2018-10-20T17:27:35.422Z,13.70
2018-10-20T17:30:04.520Z,13.70
2018-10-20T17:32:33.259Z,13.70
2018-10-20T17:35:02.527Z,13.70
2018-10-20T17:37:31.085Z,13.60
2018-10-20T17:39:59.852Z,13.60
2018-10-20T17:42:28.536Z,13.50
2018-10-20T17:44:57.240Z,13.50
2018-10-20T17:47:26.001Z,13.50
2018-10-20T17:49:54.740Z,13.50
2018-10-20T17:52:23.473Z,13.40
2018-10-20T17:54:52.145Z,13.40
2018-10-20T17:57:20.895Z,13.30
2018-10-20T17:59:49.919Z,13.30
2018-10-20T18:02:18.831Z,13.30
2018-10-20T18:04:47.669Z,13.20
2018-10-20T18:07:16.307Z,13.20
2018-10-20T18:09:45.156Z,13.20
2018-10-20T18:12:13.733Z,13.20
2018-10-20T18:14:42.499Z,13.10
2018-10-20T18:17:11.418Z,13.10
2018-10-20T18:19:40.148Z,13.10
2018-10-20T18:22:09.357Z,13.10
2018-10-20T18:24:38.142Z,13.00
2018-10-20T18:27:07.094Z,13.00
2018-10-20T18:29:35.800Z,13.00
2018-10-20T18:32:04.812Z,13.00
2018-10-20T18:34:33.678Z,12.90
2018-10-20T18:37:02.391Z,12.90
2018-10-20T18:39:31.313Z,12.90
2018-10-20T18:42:00.171Z,12.90
2018-10-20T18:44:29.159Z,12.80
2018-10-20T18:46:58.021Z,12.80
2018-10-20T18:49:25.480Z,12.70
2018-10-20T18:51:54.372Z,12.70
2018-10-20T18:54:23.078Z,12.70
2018-10-20T18:56:51.968Z,12.60
2018-10-20T18:59:20.674Z,12.50
2018-10-20T19:01:49.725Z,12.40
2018-10-20T19:04:18.405Z,12.40
2018-10-20T19:06:47.162Z,12.40
2018-10-20T19:09:15.926Z,12.40
2018-10-20T19:11:44.611Z,12.40
2018-10-20T19:14:13.325Z,12.30
2018-10-20T19:16:42.163Z,12.30
2018-10-20T19:19:10.885Z,12.20
2018-10-20T19:21:40.402Z,12.20
2018-10-20T19:24:09.382Z,12.20
2018-10-20T19:26:38.393Z,12.10
2018-10-20T19:29:07.177Z,12.10
2018-10-20T19:31:35.951Z,12.20
2018-10-20T19:34:04.669Z,12.10
2018-10-20T19:36:33.381Z,12.00
2018-10-20T19:39:02.098Z,12.10
2018-10-20T19:41:30.816Z,12.10
2018-10-20T19:43:59.506Z,12.10
2018-10-20T19:46:28.468Z,12.10
2018-10-20T19:48:57.582Z,12.10
2018-10-20T19:51:26.304Z,12.00
2018-10-20T19:53:55.055Z,12.00
2018-10-20T19:56:23.894Z,12.00
2018-10-20T19:58:52.719Z,12.00
2018-10-20T20:01:21.740Z,12.00
2018-10-20T20:03:50.628Z,11.90
2018-10-20T20:06:19.339Z,11.90
2018-10-20T20:08:48.037Z,11.90
2018-10-20T20:11:16.708Z,11.90
2018-10-20T20:13:45.464Z,11.90
2018-10-20T20:16:14.223Z,11.90
2018-10-20T20:18:42.951Z,11.80
2018-10-20T20:21:11.661Z,11.80
2018-10-20T20:23:40.368Z,11.90
2018-10-20T20:26:09.073Z,11.90
2018-10-20T20:28:37.801Z,11.90
2018-10-20T20:31:06.495Z,11.90
2018-10-20T20:33:35.180Z,11.80
2018-10-20T20:36:03.909Z,11.80
2018-10-20T20:38:32.706Z,11.80
2018-10-20T20:41:01.406Z,11.80
2018-10-20T20:43:30.258Z,11.80
2018-10-20T20:45:58.932Z,11.80
2018-10-20T20:48:27.743Z,11.80
2018-10-20T20:50:56.442Z,11.80
2018-10-20T20:53:25.207Z,11.90
2018-10-20T20:55:53.958Z,11.90
2018-10-20T20:58:22.814Z,11.80
2018-10-20T21:00:51.707Z,11.80
2018-10-20T21:03:20.401Z,11.80
2018-10-20T21:05:49.151Z,11.80
2018-10-20T21:08:17.890Z,11.80
2018-10-20T21:10:46.617Z,11.70
2018-10-20T21:13:15.441Z,11.70
2018-10-20T21:15:44.308Z,11.70
2018-10-20T21:18:12.919Z,11.70
2018-10-20T21:20:41.761Z,11.70
2018-10-20T21:23:10.501Z,11.60
2018-10-20T21:25:39.459Z,11.60
2018-10-20T21:28:13.339Z,11.60
2018-10-20T21:30:42.158Z,11.60
2018-10-20T21:33:10.964Z,11.50
2018-10-20T21:35:39.911Z,11.50
2018-10-20T21:38:08.655Z,11.60
2018-10-20T21:40:37.695Z,11.50
2018-10-20T21:43:06.644Z,11.50
2018-10-20T21:45:35.357Z,11.60
2018-10-20T21:48:04.226Z,11.50
2018-10-20T21:50:32.954Z,11.50
2018-10-20T21:53:01.722Z,11.50
2018-10-20T22:02:16.104Z,11.40
2018-10-20T22:04:45.191Z,11.40
2018-10-20T22:07:14.483Z,11.40
2018-10-20T22:09:43.289Z,11.30
2018-10-20T22:12:11.975Z,11.30
2018-10-20T22:14:40.660Z,11.30
2018-10-20T22:17:09.357Z,11.30
2018-10-20T22:19:38.070Z,11.30
2018-10-20T22:22:07.307Z,11.30
2018-10-20T22:24:36.011Z,11.30
2018-10-20T22:27:05.059Z,11.20
2018-10-20T22:29:33.799Z,11.20
2018-10-20T22:32:02.711Z,11.20
2018-10-20T22:34:31.433Z,11.20
2018-10-20T22:37:00.244Z,11.10
2018-10-20T22:39:29.016Z,11.10
2018-10-20T22:41:57.772Z,11.10
2018-10-20T22:44:26.584Z,11.10
2018-10-20T22:46:55.326Z,11.10
2018-10-20T22:49:24.101Z,11.10
2018-10-20T22:51:52.787Z,11.10
2018-10-20T22:54:21.483Z,11.00
2018-10-20T22:56:50.335Z,11.00
2018-10-20T22:59:19.176Z,11.00
2018-10-20T23:01:47.921Z,11.00
2018-10-20T23:04:16.612Z,11.10
2018-10-20T23:06:45.300Z,11.00
2018-10-20T23:09:14.056Z,11.00
2018-10-20T23:11:42.688Z,11.00
2018-10-20T23:14:11.330Z,11.00
2018-10-20T23:16:39.966Z,11.00
2018-10-20T23:19:09.115Z,11.10
2018-10-20T23:21:38.245Z,11.10
2018-10-20T23:24:06.937Z,11.00
2018-10-20T23:26:35.641Z,10.90
2018-10-20T23:29:04.319Z,10.90
2018-10-20T23:31:33.482Z,10.90
2018-10-20T23:34:02.176Z,10.90
2018-10-20T23:36:30.893Z,10.90
2018-10-20T23:38:59.755Z,10.90
2018-10-20T23:41:28.464Z,10.90
2018-10-20T23:43:57.174Z,10.90
2018-10-20T23:46:25.875Z,10.90
2018-10-20T23:48:54.627Z,10.80
2018-10-20T23:51:23.354Z,10.80
2018-10-20T23:53:52.064Z,10.80
2018-10-20T23:56:20.719Z,10.80
2018-10-20T23:58:49.554Z,10.70
